createdAt,value
2018-12-14T00:02:25.710Z,0.20
2018-12-14T00:04:53.165Z,0.20
2018-12-14T00:07:20.608Z,0.10
2018-12-14T00:09:48.097Z,0.10
2018-12-14T00:12:15.533Z,0.20
2018-12-14T00:14:42.982Z,0.20
2018-12-14T00:17:10.491Z,0.10
2018-12-14T00:19:37.916Z,0.10
2018-12-14T00:22:05.468Z,0.10
2018-12-14T00:24:32.924Z,0.20
2018-12-14T00:27:01.186Z,0.10
2018-12-14T00:29:28.688Z,0.10
2018-12-14T00:31:56.903Z,0.20
2018-12-14T00:34:25.290Z,0.20
2018-12-14T00:36:52.863Z,0.10
2018-12-14T00:39:20.318Z,0.10
2018-12-14T00:41:51.836Z,0.10
2018-12-14T00:44:17.266Z,0.10
2018-12-14T00:46:44.726Z,0.20
2018-12-14T00:49:12.218Z,0.20
2018-12-14T00:51:42.625Z,0.10
2018-12-14T00:54:10.205Z,0.20
2018-12-14T00:56:37.630Z,0.10
2018-12-14T00:59:05.173Z,0.10
2018-12-14T01:01:32.646Z,0.00
2018-12-14T01:04:00.142Z,0.00
2018-12-14T01:06:28.561Z,-0.10
2018-12-14T01:08:56.073Z,0.00
2018-12-14T01:11:23.569Z,0.00
2018-12-14T01:13:51.041Z,0.00
2018-12-14T01:16:18.525Z,0.00
2018-12-14T01:18:45.994Z,0.10
2018-12-14T01:21:13.772Z,0.10
2018-12-14T01:23:41.254Z,0.10
2018-12-14T01:26:08.702Z,0.10
2018-12-14T01:28:36.937Z,0.10
2018-12-14T01:31:04.396Z,0.10
2018-12-14T01:33:31.875Z,0.10
2018-12-14T01:35:59.513Z,0.10
2018-12-14T01:38:27.038Z,0.00
2018-12-14T01:40:54.526Z,0.00
2018-12-14T01:43:21.993Z,0.00
2018-12-14T01:45:50.411Z,0.00
2018-12-14T01:48:18.122Z,0.10
2018-12-14T01:50:45.689Z,0.10
2018-12-14T01:53:13.122Z,0.10
2018-12-14T01:55:40.552Z,0.10
2018-12-14T01:58:08.008Z,0.10
2018-12-14T02:00:35.492Z,0.10
2018-12-14T02:03:03.198Z,0.00
2018-12-14T02:05:30.943Z,0.00
2018-12-14T02:07:59.221Z,0.00
2018-12-14T02:10:26.653Z,0.00
2018-12-14T02:12:54.121Z,0.00
2018-12-14T02:15:21.571Z,0.00
2018-12-14T02:17:49.166Z,0.10
2018-12-14T02:20:16.648Z,0.10
2018-12-14T02:22:44.129Z,0.10
2018-12-14T02:25:12.245Z,0.10
2018-12-14T02:27:39.725Z,0.00
2018-12-14T02:30:18.993Z,0.00
2018-12-14T02:32:46.554Z,0.00
2018-12-14T02:35:14.004Z,0.00
2018-12-14T02:37:41.485Z,0.00
2018-12-14T02:40:09.158Z,0.00
2018-12-14T02:42:36.631Z,0.00
2018-12-14T02:45:05.084Z,0.00
2018-12-14T02:47:32.869Z,0.00
2018-12-14T02:50:00.341Z,0.00
2018-12-14T02:52:27.809Z,0.00
2018-12-14T02:54:55.242Z,0.00
2018-12-14T02:57:22.703Z,0.00
2018-12-14T02:59:50.169Z,0.00
2018-12-14T03:02:17.661Z,0.00
2018-12-14T03:04:45.229Z,-0.10
2018-12-14T03:07:12.677Z,-0.10
2018-12-14T03:09:44.202Z,-0.10
2018-12-14T03:12:11.667Z,-0.10
2018-12-14T03:14:39.485Z,-0.10
2018-12-14T03:17:07.228Z,-0.10
2018-12-14T03:19:34.943Z,-0.10
2018-12-14T03:22:02.431Z,-0.10
2018-12-14T03:24:30.326Z,-0.10
2018-12-14T03:26:57.824Z,-0.20
2018-12-14T03:29:25.418Z,-0.10
2018-12-14T03:31:52.920Z,-0.10
2018-12-14T03:34:20.469Z,-0.10
2018-12-14T03:36:48.159Z,-0.10
2018-12-14T03:39:27.082Z,-0.10
2018-12-14T03:41:54.556Z,-0.10
2018-12-14T03:44:22.003Z,-0.20
2018-12-14T03:46:50.255Z,-0.20
2018-12-14T03:49:17.880Z,-0.20
2018-12-14T03:51:45.381Z,-0.20
2018-12-14T03:54:12.825Z,-0.20
2018-12-14T03:56:40.286Z,-0.20
2018-12-14T03:59:07.798Z,-0.30
2018-12-14T04:01:35.339Z,-0.20
2018-12-14T04:04:02.803Z,-0.30
2018-12-14T04:06:30.318Z,-0.30
2018-12-14T04:08:58.817Z,-0.30
2018-12-14T04:11:26.254Z,-0.30
2018-12-14T04:13:53.729Z,-0.30
2018-12-14T04:16:21.389Z,-0.30
2018-12-14T04:18:48.876Z,-0.30
2018-12-14T04:21:16.358Z,-0.30
2018-12-14T04:23:44.024Z,-0.20
2018-12-14T04:26:12.295Z,-0.30
2018-12-14T04:28:39.838Z,-0.30
2018-12-14T04:31:07.324Z,-0.30
2018-12-14T04:33:35.566Z,-0.30
2018-12-14T04:36:03.161Z,-0.30
2018-12-14T04:38:31.791Z,-0.40
2018-12-14T04:40:59.262Z,-0.30
2018-12-14T04:43:26.798Z,-0.30
2018-12-14T04:45:54.357Z,-0.30
2018-12-14T04:48:21.843Z,-0.30
2018-12-14T04:50:49.365Z,-0.30
2018-12-14T04:53:16.829Z,-0.30
2018-12-14T04:55:48.723Z,-0.30
2018-12-14T04:58:16.159Z,-0.30
2018-12-14T05:00:43.596Z,-0.30
2018-12-14T05:03:11.074Z,-0.30
2018-12-14T05:05:38.498Z,-0.30
2018-12-14T05:08:06.460Z,-0.30
2018-12-14T05:10:34.756Z,-0.30
2018-12-14T05:13:02.243Z,-0.30
2018-12-14T05:15:29.823Z,-0.30
2018-12-14T05:17:57.258Z,-0.30
2018-12-14T05:20:24.736Z,-0.30
2018-12-14T05:22:52.310Z,-0.30
2018-12-14T05:25:19.843Z,-0.30
2018-12-14T05:27:47.301Z,-0.20
2018-12-14T05:30:15.259Z,-0.20
2018-12-14T05:32:43.191Z,-0.20
2018-12-14T05:35:10.682Z,-0.20
2018-12-14T05:37:38.138Z,-0.20
2018-12-14T05:40:06.122Z,-0.20
2018-12-14T05:42:33.757Z,-0.30
2018-12-14T05:45:02.208Z,-0.30
2018-12-14T05:47:29.654Z,-0.40
2018-12-14T05:49:57.129Z,-0.40
2018-12-14T05:52:24.613Z,-0.40
2018-12-14T05:54:52.080Z,-0.30
2018-12-14T05:57:19.877Z,-0.40
2018-12-14T05:59:47.317Z,-0.40
2018-12-14T06:02:15.592Z,-0.40
2018-12-14T06:04:43.034Z,-0.40
2018-12-14T06:07:10.550Z,-0.40
2018-12-14T06:09:38.111Z,-0.40
2018-12-14T06:12:09.577Z,-0.40
2018-12-14T06:14:37.025Z,-0.50
2018-12-14T06:17:04.973Z,-0.50
2018-12-14T06:19:32.457Z,-0.50
2018-12-14T06:22:00.240Z,-0.60
2018-12-14T06:24:27.840Z,-0.60
2018-12-14T06:26:55.317Z,-0.50
2018-12-14T06:29:22.911Z,-0.60
2018-12-14T06:31:50.361Z,-0.60
2018-12-14T06:34:17.811Z,-0.70
2018-12-14T06:36:45.279Z,-0.70
2018-12-14T06:39:14.591Z,-0.70
2018-12-14T06:41:42.585Z,-0.80
2018-12-14T06:44:10.082Z,-0.80
2018-12-14T06:46:38.101Z,-0.90
2018-12-14T06:49:05.562Z,-0.90
2018-12-14T06:51:33.020Z,-1.00
2018-12-14T06:54:00.498Z,-0.90
2018-12-14T06:56:27.974Z,-1.00
2018-12-14T06:58:55.601Z,-1.00
2018-12-14T07:01:23.114Z,-1.00
2018-12-14T07:03:50.628Z,-0.90
2018-12-14T07:06:18.094Z,-1.00
2018-12-14T07:08:46.794Z,-1.10
2018-12-14T07:11:15.567Z,-1.20
2018-12-14T07:13:43.037Z,-1.20
2018-12-14T07:16:11.076Z,-1.30
2018-12-14T07:18:38.640Z,-1.30
2018-12-14T07:21:06.110Z,-1.30
2018-12-14T07:23:33.583Z,-1.30
2018-12-14T07:26:01.182Z,-1.20
2018-12-14T07:28:32.954Z,-1.30
2018-12-14T07:31:00.650Z,-1.30
2018-12-14T07:33:28.226Z,-1.40
2018-12-14T07:35:55.710Z,-1.40
2018-12-14T07:38:23.177Z,-1.50
2018-12-14T07:40:50.646Z,-1.60
2018-12-14T07:43:21.573Z,-1.60
2018-12-14T07:45:49.952Z,-1.60
2018-12-14T07:48:17.487Z,-1.60
2018-12-14T07:50:44.931Z,-1.60
2018-12-14T07:53:12.440Z,-1.60
2018-12-14T07:55:39.988Z,-1.50
2018-12-14T07:58:07.472Z,-1.50
2018-12-14T08:00:34.957Z,-1.50
2018-12-14T08:03:02.528Z,-1.40
2018-12-14T08:05:30.101Z,-1.30
2018-12-14T08:07:58.497Z,-1.20
2018-12-14T08:10:26.039Z,-1.00
2018-12-14T08:12:54.080Z,-1.00
2018-12-14T08:15:21.628Z,-0.90
2018-12-14T08:17:49.169Z,-0.80
2018-12-14T08:20:17.194Z,-0.80
2018-12-14T08:22:45.135Z,-0.80
2018-12-14T08:25:12.673Z,-0.70
2018-12-14T08:27:40.132Z,-0.70
2018-12-14T08:30:12.783Z,-0.60
2018-12-14T08:32:40.243Z,-0.50
2018-12-14T08:35:08.106Z,-0.50
2018-12-14T08:37:35.566Z,-0.60
2018-12-14T08:40:04.725Z,-0.50
2018-12-14T08:42:32.173Z,-0.40
2018-12-14T08:44:59.779Z,-0.40
2018-12-14T08:47:27.287Z,-0.30
2018-12-14T08:49:54.896Z,-0.20
2018-12-14T08:52:22.380Z,-0.10
2018-12-14T08:54:49.889Z,0.00
2018-12-14T08:57:17.416Z,0.10
2018-12-14T08:59:45.490Z,0.20
2018-12-14T09:02:13.008Z,0.30
2018-12-14T09:04:40.470Z,0.30
2018-12-14T09:07:08.124Z,0.40
2018-12-14T09:09:35.677Z,0.50
2018-12-14T09:12:03.171Z,0.50
2018-12-14T09:14:30.641Z,0.50
2018-12-14T09:16:58.890Z,0.50
2018-12-14T09:19:26.400Z,0.40
2018-12-14T09:21:53.886Z,0.40
2018-12-14T09:24:21.646Z,0.40
2018-12-14T09:26:49.152Z,0.30
2018-12-14T09:29:16.929Z,0.10
2018-12-14T09:31:44.798Z,0.10
2018-12-14T09:34:13.320Z,0.00
2018-12-14T09:36:40.809Z,0.00
2018-12-14T09:39:08.326Z,0.00
2018-12-14T09:41:36.001Z,0.00
2018-12-14T09:44:03.562Z,0.00
2018-12-14T09:46:37.071Z,0.00
2018-12-14T09:49:01.394Z,0.10
2018-12-14T09:51:28.972Z,0.10
2018-12-14T09:53:56.877Z,0.10
2018-12-14T09:56:24.341Z,0.20
2018-12-14T09:58:51.891Z,0.20
2018-12-14T10:01:23.962Z,0.20
2018-12-14T10:03:53.031Z,0.20
2018-12-14T10:06:20.605Z,0.10
2018-12-14T10:08:48.060Z,0.10
2018-12-14T10:11:16.860Z,0.20
2018-12-14T10:13:44.455Z,0.30
2018-12-14T10:16:15.653Z,0.40
2018-12-14T10:18:43.663Z,0.50
2018-12-14T10:21:11.439Z,0.50
2018-12-14T10:23:38.880Z,0.70
2018-12-14T10:26:06.357Z,0.70
2018-12-14T10:28:33.833Z,0.70
2018-12-14T10:31:01.321Z,0.60
2018-12-14T10:33:28.904Z,0.70
2018-12-14T10:35:56.336Z,0.70
2018-12-14T10:38:23.997Z,0.80
2018-12-14T10:40:51.465Z,1.00
2018-12-14T10:43:19.656Z,1.00
2018-12-14T10:45:47.346Z,1.10
2018-12-14T10:48:14.808Z,1.10
2018-12-14T10:50:42.285Z,1.10
2018-12-14T10:53:11.518Z,1.10
2018-12-14T10:55:39.055Z,1.10
2018-12-14T10:58:06.800Z,1.10
2018-12-14T11:00:39.955Z,1.10
2018-12-14T11:03:07.400Z,1.20
2018-12-14T11:05:35.142Z,1.20
2018-12-14T11:08:02.648Z,1.20
2018-12-14T11:10:30.112Z,1.30
2018-12-14T11:12:58.250Z,1.30
2018-12-14T11:15:25.790Z,1.20
2018-12-14T11:17:53.300Z,1.20
2018-12-14T11:20:20.910Z,1.20
2018-12-14T11:22:48.440Z,1.30
2018-12-14T11:25:15.877Z,1.40
2018-12-14T11:27:43.505Z,1.40
2018-12-14T11:30:11.157Z,1.40
2018-12-14T11:32:38.654Z,1.40
2018-12-14T11:35:06.774Z,1.40
2018-12-14T11:37:34.257Z,1.40
2018-12-14T11:40:01.755Z,1.40
2018-12-14T11:42:29.358Z,1.40
2018-12-14T11:44:56.875Z,1.30
2018-12-14T11:47:28.450Z,1.30
2018-12-14T11:49:56.128Z,1.20
2018-12-14T11:52:23.623Z,1.20
2018-12-14T11:54:51.093Z,1.20
2018-12-14T11:57:18.908Z,1.30
2018-12-14T11:59:46.672Z,1.40
2018-12-14T12:02:15.097Z,1.40
2018-12-14T12:04:42.550Z,1.40
2018-12-14T12:07:09.990Z,1.40
2018-12-14T12:09:37.563Z,1.30
2018-12-14T12:12:04.995Z,1.20
2018-12-14T12:14:32.445Z,1.10
2018-12-14T12:16:59.938Z,1.20
2018-12-14T12:19:27.417Z,1.20
2018-12-14T12:21:54.921Z,1.30
2018-12-14T12:24:22.429Z,1.30
2018-12-14T12:26:49.998Z,1.20
2018-12-14T12:29:18.018Z,1.20
2018-12-14T12:31:45.484Z,1.20
2018-12-14T12:34:12.942Z,1.20
2018-12-14T12:36:40.477Z,1.20
2018-12-14T12:39:07.937Z,1.10
2018-12-14T12:41:35.446Z,1.20
2018-12-14T12:44:02.954Z,1.20
2018-12-14T12:46:31.335Z,1.20
2018-12-14T12:49:02.548Z,1.20
2018-12-14T12:51:30.257Z,1.20
2018-12-14T12:53:57.701Z,1.20
2018-12-14T12:56:25.405Z,1.20
2018-12-14T12:58:54.388Z,1.20
2018-12-14T13:01:22.176Z,1.20
2018-12-14T13:03:49.669Z,1.10
2018-12-14T13:06:17.116Z,1.10
2018-12-14T13:08:44.622Z,1.00
2018-12-14T13:11:12.101Z,1.00
2018-12-14T13:13:40.621Z,1.00
2018-12-14T13:16:08.292Z,1.00
2018-12-14T13:18:35.962Z,1.00
2018-12-14T13:21:03.501Z,1.10
2018-12-14T13:23:30.973Z,1.00
2018-12-14T13:25:59.158Z,1.00
2018-12-14T13:28:26.898Z,1.00
2018-12-14T13:30:54.355Z,1.00
2018-12-14T13:33:22.153Z,1.00
2018-12-14T13:35:49.682Z,1.00
2018-12-14T13:38:17.195Z,1.00
2018-12-14T13:40:44.809Z,0.90
2018-12-14T13:43:12.568Z,0.80
2018-12-14T13:45:40.037Z,0.80
2018-12-14T13:48:07.664Z,0.80
2018-12-14T13:50:35.222Z,0.90
2018-12-14T13:53:02.937Z,0.90
2018-12-14T13:58:04.266Z,1.00
2018-12-14T14:00:32.677Z,1.00
2018-12-14T14:03:00.201Z,0.90
2018-12-14T14:05:27.640Z,1.00
2018-12-14T14:07:55.141Z,0.90
2018-12-14T14:10:22.597Z,0.90
2018-12-14T14:12:50.083Z,1.00
2018-12-14T14:15:20.834Z,0.90
2018-12-14T14:17:47.046Z,0.90
2018-12-14T14:20:18.242Z,1.00
2018-12-14T14:22:46.691Z,1.00
2018-12-14T14:25:17.465Z,1.00
2018-12-14T14:27:43.889Z,0.90
2018-12-14T14:30:12.159Z,0.90
2018-12-14T14:32:39.625Z,0.90
2018-12-14T14:35:10.675Z,0.80
2018-12-14T14:37:38.149Z,0.80
2018-12-14T14:40:05.880Z,0.80
2018-12-14T14:42:33.345Z,0.90
2018-12-14T14:45:01.166Z,0.90
2018-12-14T14:47:28.621Z,0.80
2018-12-14T14:49:56.065Z,0.80
2018-12-14T14:52:23.531Z,0.80
2018-12-14T14:54:51.549Z,0.90
2018-12-14T14:57:19.061Z,0.80
2018-12-14T14:59:46.539Z,0.70
2018-12-14T15:02:14.745Z,0.60
2018-12-14T15:04:42.217Z,0.50
2018-12-14T15:07:09.937Z,0.40
2018-12-14T15:09:37.496Z,0.50
2018-12-14T15:12:04.931Z,0.50
2018-12-14T15:14:32.527Z,0.50
2018-12-14T15:17:00.101Z,0.50
2018-12-14T15:19:27.601Z,0.50
2018-12-14T15:21:55.105Z,0.50
2018-12-14T15:24:23.093Z,0.50
2018-12-14T15:26:50.692Z,0.60
2018-12-14T15:29:18.158Z,0.70
2018-12-14T15:31:46.150Z,0.70
2018-12-14T15:34:14.412Z,0.70
2018-12-14T15:36:42.237Z,0.70
2018-12-14T15:39:09.691Z,0.70
2018-12-14T15:41:37.143Z,0.70
2018-12-14T15:44:04.604Z,0.70
2018-12-14T15:46:32.129Z,0.60
2018-12-14T15:48:59.718Z,0.60
2018-12-14T15:51:27.157Z,0.50
2018-12-14T15:53:54.629Z,0.60
2018-12-14T15:56:22.170Z,0.50
2018-12-14T15:58:50.570Z,0.50
2018-12-14T16:01:18.086Z,0.50
2018-12-14T16:03:45.565Z,0.50
2018-12-14T16:06:13.145Z,0.60
2018-12-14T16:08:40.766Z,0.50
2018-12-14T16:11:08.249Z,0.50
2018-12-14T16:13:35.825Z,0.50
2018-12-14T16:16:04.042Z,0.50
2018-12-14T16:18:31.846Z,0.50
2018-12-14T16:20:59.283Z,0.50
2018-12-14T16:23:26.842Z,0.40
2018-12-14T16:25:54.423Z,0.50
2018-12-14T16:28:22.788Z,0.40
2018-12-14T16:30:50.422Z,0.40
2018-12-14T16:33:17.885Z,0.40
2018-12-14T16:35:45.421Z,0.40
2018-12-14T16:38:12.853Z,0.40
2018-12-14T16:40:40.351Z,0.40
2018-12-14T16:43:07.997Z,0.40
2018-12-14T16:45:35.433Z,0.40
2018-12-14T16:48:03.103Z,0.40
2018-12-14T16:50:31.453Z,0.40
2018-12-14T16:52:59.244Z,0.40
2018-12-14T16:55:26.706Z,0.40
2018-12-14T16:57:54.547Z,0.40
2018-12-14T17:00:22.063Z,0.40
2018-12-14T17:02:50.318Z,0.40
2018-12-14T17:05:17.861Z,0.30
2018-12-14T17:07:45.300Z,0.30
2018-12-14T17:10:12.848Z,0.30
2018-12-14T17:12:40.411Z,0.30
2018-12-14T17:15:07.901Z,0.40
2018-12-14T17:17:35.452Z,0.30
2018-12-14T17:20:03.937Z,0.30
2018-12-14T17:22:31.420Z,0.30
2018-12-14T17:24:59.063Z,0.30
2018-12-14T17:27:26.694Z,0.40
2018-12-14T17:29:54.131Z,0.40
2018-12-14T17:32:21.645Z,0.40
2018-12-14T17:34:49.125Z,0.40
2018-12-14T17:37:16.593Z,0.30
2018-12-14T17:39:44.286Z,0.30
2018-12-14T17:42:12.381Z,0.20
2018-12-14T17:44:39.882Z,0.30
2018-12-14T17:49:46.270Z,0.20
2018-12-14T17:52:13.844Z,0.30
2018-12-14T17:54:41.294Z,0.30
2018-12-14T17:57:08.749Z,0.20
2018-12-14T17:59:36.263Z,0.20
2018-12-14T18:02:03.913Z,0.20
2018-12-14T18:04:31.546Z,0.30
2018-12-14T18:06:59.065Z,0.30
2018-12-14T18:09:27.342Z,0.30
2018-12-14T18:11:54.856Z,0.40
2018-12-14T18:14:22.336Z,0.30
2018-12-14T18:16:49.778Z,0.30
2018-12-14T18:19:17.322Z,0.30
2018-12-14T18:21:44.771Z,0.30
2018-12-14T18:24:16.221Z,0.20
2018-12-14T18:26:43.819Z,0.20
2018-12-14T18:29:11.409Z,0.10
2018-12-14T18:31:38.861Z,0.20
2018-12-14T18:34:06.370Z,0.20
2018-12-14T18:36:33.817Z,0.20
2018-12-14T18:39:01.286Z,0.20
2018-12-14T18:41:33.193Z,0.20
2018-12-14T18:44:00.665Z,0.20
2018-12-14T18:46:28.109Z,0.20
2018-12-14T18:48:55.585Z,0.20
2018-12-14T18:51:23.043Z,0.20
2018-12-14T18:53:52.456Z,0.20
2018-12-14T18:56:19.906Z,0.30
2018-12-14T18:58:47.407Z,0.30
2018-12-14T19:01:14.879Z,0.40
2018-12-14T19:03:42.416Z,0.40
2018-12-14T19:06:09.884Z,0.30
2018-12-14T19:08:38.411Z,0.30
2018-12-14T19:11:05.853Z,0.20
2018-12-14T19:13:33.547Z,0.20
2018-12-14T19:16:01.310Z,0.20
2018-12-14T19:18:28.790Z,0.30
2018-12-14T19:20:56.525Z,0.30
2018-12-14T19:23:23.971Z,0.30
2018-12-14T19:25:51.447Z,0.30
2018-12-14T19:28:18.899Z,0.30
2018-12-14T19:30:47.129Z,0.30
2018-12-14T19:33:14.711Z,0.30
2018-12-14T19:35:42.132Z,0.40
2018-12-14T19:38:09.885Z,0.30
2018-12-14T19:40:37.406Z,0.30
2018-12-14T19:43:04.992Z,0.30
2018-12-14T19:45:32.499Z,0.30
2018-12-14T19:48:01.031Z,0.30
2018-12-14T19:50:28.544Z,0.20
2018-12-14T19:52:56.037Z,0.10
2018-12-14T19:55:26.767Z,0.10
2018-12-14T19:57:54.516Z,0.10
2018-12-14T20:00:22.194Z,0.00
2018-12-14T20:02:50.327Z,0.10
2018-12-14T20:05:17.864Z,0.10
2018-12-14T20:07:45.340Z,0.10
2018-12-14T20:10:12.801Z,0.10
2018-12-14T20:12:40.441Z,0.10
2018-12-14T20:15:08.008Z,0.10
2018-12-14T20:17:35.555Z,0.10
2018-12-14T20:20:03.582Z,0.10
2018-12-14T20:22:31.037Z,0.10
2018-12-14T20:24:58.971Z,0.00
2018-12-14T20:27:29.670Z,0.10
2018-12-14T20:29:57.436Z,0.10
2018-12-14T20:32:25.204Z,0.10
2018-12-14T20:34:53.149Z,0.10
2018-12-14T20:37:20.618Z,0.00
2018-12-14T20:39:48.418Z,0.00
2018-12-14T20:42:22.990Z,0.00
2018-12-14T20:44:50.433Z,0.00
2018-12-14T20:47:18.816Z,0.00
2018-12-14T20:49:46.265Z,0.00
2018-12-14T20:52:13.749Z,0.10
2018-12-14T20:54:41.509Z,0.10
2018-12-14T20:57:12.371Z,0.10
2018-12-14T20:59:39.816Z,0.00
2018-12-14T21:02:07.273Z,0.10
2018-12-14T21:04:34.713Z,0.10
2018-12-14T21:07:02.836Z,0.10
2018-12-14T21:09:30.550Z,0.10
2018-12-14T21:11:57.992Z,0.00
2018-12-14T21:14:25.890Z,0.00
2018-12-14T21:16:53.746Z,0.10
2018-12-14T21:19:21.197Z,0.00
2018-12-14T21:21:48.853Z,0.10
2018-12-14T21:24:16.703Z,0.00
2018-12-14T21:26:44.166Z,0.10
2018-12-14T21:29:16.044Z,0.10
2018-12-14T21:31:41.253Z,0.10
2018-12-14T21:34:08.713Z,0.10
2018-12-14T21:36:37.340Z,0.10
2018-12-14T21:39:05.773Z,0.10
2018-12-14T21:41:33.558Z,0.10
2018-12-14T21:44:01.616Z,0.10
2018-12-14T21:46:32.594Z,0.10
2018-12-14T21:48:58.565Z,0.10
2018-12-14T21:51:26.021Z,0.10
2018-12-14T21:53:53.556Z,0.10
2018-12-14T21:56:21.104Z,0.10
2018-12-14T21:58:49.597Z,0.00
2018-12-14T22:01:17.041Z,0.00
2018-12-14T22:03:44.646Z,0.10
2018-12-14T22:06:12.134Z,0.10
2018-12-14T22:08:39.642Z,0.10
2018-12-14T22:11:07.081Z,0.10
2018-12-14T22:13:34.550Z,0.20
2018-12-14T22:16:02.036Z,0.10
2018-12-14T22:18:29.484Z,0.20
2018-12-14T22:20:57.079Z,0.20
2018-12-14T22:23:24.707Z,0.20
2018-12-14T22:25:52.416Z,0.20
2018-12-14T22:28:19.989Z,0.10
2018-12-14T22:30:47.508Z,0.10
2018-12-14T22:33:14.942Z,0.10
2018-12-14T22:35:42.411Z,0.00
2018-12-14T22:38:09.955Z,0.00
2018-12-14T22:40:37.446Z,0.00
2018-12-14T22:43:09.855Z,0.00
2018-12-14T22:45:37.351Z,0.00
2018-12-14T22:48:04.789Z,0.00
2018-12-14T22:50:32.287Z,0.00
2018-12-14T22:52:59.748Z,0.10
2018-12-14T22:55:27.177Z,0.00
2018-12-14T22:57:55.549Z,0.00
2018-12-14T23:00:23.377Z,0.00
2018-12-14T23:02:50.838Z,0.00
2018-12-14T23:05:18.414Z,0.00
2018-12-14T23:07:46.115Z,0.00
2018-12-14T23:10:13.590Z,0.00
2018-12-14T23:12:41.050Z,0.00
2018-12-14T23:15:09.492Z,0.10
2018-12-14T23:17:36.986Z,0.10
2018-12-14T23:20:05.334Z,0.10
2018-12-14T23:22:32.775Z,0.10
2018-12-14T23:25:00.549Z,0.00
2018-12-14T23:27:28.855Z,0.00
2018-12-14T23:29:56.385Z,0.10
2018-12-14T23:32:24.062Z,0.10
2018-12-14T23:34:51.494Z,0.10
2018-12-14T23:37:19.080Z,0.10
2018-12-14T23:39:46.591Z,0.10
2018-12-14T23:42:14.054Z,0.00
2018-12-14T23:44:42.767Z,0.10
2018-12-14T23:47:10.214Z,0.00
2018-12-14T23:49:37.723Z,0.00
2018-12-14T23:52:05.189Z,0.00
2018-12-14T23:54:32.707Z,0.00
2018-12-14T23:57:00.141Z,0.10
2018-12-14T23:59:31.413Z,0.10
